createdAt,value
2023-02-13T00:02:08.242Z,0
2023-02-13T00:07:09.742Z,0
2023-02-13T00:12:11.234Z,0
2023-02-13T00:17:12.895Z,0
2023-02-13T00:22:14.494Z,0
2023-02-13T00:27:16.240Z,0
2023-02-13T00:32:17.871Z,0.88715
2023-02-13T00:37:19.356Z,0
2023-02-13T00:42:20.943Z,0
2023-02-13T00:47:22.440Z,0
2023-02-13T00:52:23.925Z,0
2023-02-13T00:57:25.643Z,0
2023-02-13T01:02:27.143Z,0
2023-02-13T01:07:28.630Z,0
2023-02-13T01:12:30.351Z,0
2023-02-13T01:17:31.922Z,0.88715
2023-02-13T01:22:33.405Z,0
2023-02-13T01:27:35.250Z,0
2023-02-13T01:32:36.908Z,0.88715
2023-02-13T01:37:38.367Z,0
2023-02-13T01:42:40.029Z,0
2023-02-13T01:47:41.502Z,0
2023-02-13T01:52:43.275Z,0
2023-02-13T01:57:44.933Z,0
2023-02-13T02:02:46.645Z,0
2023-02-13T02:07:48.138Z,0.88715
2023-02-13T02:12:49.930Z,0
2023-02-13T02:17:51.378Z,0
2023-02-13T02:22:53.110Z,0
2023-02-13T02:27:54.729Z,0
2023-02-13T02:32:56.303Z,0
2023-02-13T02:37:57.882Z,0
2023-02-13T02:42:59.632Z,0
2023-02-13T02:48:01.407Z,0
2023-02-13T02:53:03.168Z,0
2023-02-13T02:58:05.134Z,0
2023-02-13T03:03:07.073Z,0
2023-02-13T03:08:08.790Z,0.88715
2023-02-13T03:13:10.666Z,0
2023-02-13T03:18:12.390Z,0.88715
2023-02-13T03:23:13.885Z,0.88715
2023-02-13T03:28:15.653Z,0.88715
2023-02-13T03:33:17.538Z,0
2023-02-13T03:38:18.992Z,0
2023-02-13T03:43:20.536Z,0.47405
2023-02-13T03:48:22.010Z,1.53075
2023-02-13T03:53:23.440Z,6.9711
2023-02-13T03:58:25.282Z,5.3852
2023-02-13T04:03:26.897Z,4.8591
2023-02-13T04:08:28.649Z,10.5308
2023-02-13T04:13:30.463Z,16.8934
2023-02-13T04:18:32.181Z,18.369
2023-02-13T04:23:35.978Z,24.2524
2023-02-13T04:28:38.873Z,34.1915
2023-02-13T04:33:40.570Z,53.1538
2023-02-13T04:38:42.417Z,61.86465
2023-02-13T04:43:44.033Z,68.7385
2023-02-13T04:48:45.618Z,76.3827
2023-02-13T04:53:47.554Z,76.61975
2023-02-13T04:58:49.250Z,71.8199
2023-02-13T05:03:51.057Z,68.608
2023-02-13T05:08:52.926Z,69.0872
2023-02-13T05:13:54.677Z,83.5656
2023-02-13T05:18:56.559Z,99.92465
2023-02-13T05:23:58.332Z,111.93105
2023-02-13T05:29:00.244Z,117.07665
2023-02-13T05:34:02.162Z,133.546
2023-02-13T05:39:03.794Z,140.2965
2023-02-13T05:44:05.648Z,157.1899
2023-02-13T05:49:07.399Z,169.62035
2023-02-13T05:54:08.991Z,189.7977
2023-02-13T05:59:10.744Z,218.83745
2023-02-13T06:04:12.762Z,250.71795
2023-02-13T06:09:14.728Z,274.83565
2023-02-13T06:14:16.704Z,284.61315
2023-02-13T06:19:18.638Z,297.91045
2023-02-13T06:24:20.585Z,314.36265
2023-02-13T06:29:22.632Z,279.4483
2023-02-13T06:34:24.557Z,323.37985
2023-02-13T06:39:26.494Z,338.5966
2023-02-13T06:44:28.453Z,334.09695
2023-02-13T06:49:30.343Z,358.62555
2023-02-13T06:54:46.368Z,325.2072
2023-02-13T06:59:49.741Z,365.20305
2023-02-13T07:04:51.501Z,364.3982
2023-02-13T07:09:53.272Z,353.8674
2023-02-13T07:14:55.057Z,322.3473
2023-02-13T07:19:56.681Z,277.2539
2023-02-13T07:24:58.330Z,290.6066
2023-02-13T07:30:00.018Z,361.96235
2023-02-13T07:35:02.639Z,273.12
2023-02-13T07:40:05.678Z,479.03625
2023-02-13T07:45:08.476Z,541.08095
2023-02-13T07:50:10.152Z,525.0871
2023-02-13T07:55:11.887Z,328.9495
2023-02-13T08:00:13.602Z,479.2063
2023-02-13T08:05:15.352Z,552.2754
2023-02-13T08:10:16.933Z,525.9683
2023-02-13T08:15:18.570Z,618.0462
2023-02-13T08:20:20.418Z,580.4258
2023-02-13T08:25:22.241Z,578.00525
2023-02-13T08:30:24.109Z,505.99855
2023-02-13T08:35:25.908Z,624.7504
2023-02-13T08:40:28.018Z,685.84465
2023-02-13T08:45:29.700Z,715.29565
2023-02-13T08:50:31.399Z,755.77755
2023-02-13T08:55:33.261Z,758.19255
2023-02-13T09:00:45.600Z,757.75135
2023-02-13T09:05:47.330Z,766.71525
2023-02-13T09:10:48.981Z,789.56805
2023-02-13T09:15:50.608Z,887.97135
2023-02-13T09:20:52.280Z,668.4145
2023-02-13T09:25:54.007Z,648.27555
2023-02-13T09:30:55.911Z,785.51535
2023-02-13T09:35:57.897Z,945.45065
2023-02-13T09:40:59.874Z,959.13955
2023-02-13T09:46:01.801Z,1046.8402
2023-02-13T09:51:03.659Z,972.5908
2023-02-13T09:56:05.584Z,1107.57855
2023-02-13T10:01:07.241Z,1408.4856
2023-02-13T10:06:09.042Z,959.96895
2023-02-13T10:11:10.900Z,932.2366
2023-02-13T10:16:13.263Z,1084.6462
2023-02-13T10:21:15.409Z,1168.08025
2023-02-13T10:26:19.948Z,1666.66855
2023-02-13T10:31:22.223Z,837.2762
2023-02-13T10:36:23.902Z,735.43475
2023-02-13T10:41:25.543Z,780.06395
2023-02-13T10:46:27.203Z,857.752
2023-02-13T10:51:28.953Z,955.4994
2023-02-13T10:56:30.964Z,965.41985
2023-02-13T11:01:33.142Z,1606.93865
2023-02-13T11:06:34.919Z,983.38195
2023-02-13T11:11:36.818Z,1657.6637
2023-02-13T11:16:38.943Z,1227.4979
2023-02-13T11:21:40.959Z,1024.38735
2023-02-13T11:26:43.003Z,1695.82615
2023-02-13T11:31:45.351Z,1026.2717
2023-02-13T11:36:47.431Z,1196.45835
2023-02-13T11:41:49.454Z,1077.67625
2023-02-13T11:46:51.183Z,738.17325
2023-02-13T11:51:52.911Z,463.2259
2023-02-13T11:57:04.669Z,358.3781
2023-02-13T12:02:07.429Z,308.8236
2023-02-13T12:07:09.286Z,266.3505
2023-02-13T12:12:10.980Z,257.9038
2023-02-13T12:17:56.455Z,223.82225
2023-02-13T12:23:00.118Z,237.0095
2023-02-13T12:28:02.496Z,242.61715
2023-02-13T12:33:04.719Z,319.61485
2023-02-13T12:38:06.711Z,362.0898
2023-02-13T12:43:08.699Z,335.9396
2023-02-13T12:48:10.845Z,354.3999
2023-02-13T12:53:12.833Z,364.5998
2023-02-13T12:58:14.923Z,389.88475
2023-02-13T13:03:22.759Z,388.0954
2023-02-13T13:08:24.557Z,377.8612
2023-02-13T13:13:26.684Z,405.59915
2023-02-13T13:18:29.035Z,479.18545
2023-02-13T13:23:31.133Z,659.6675
2023-02-13T13:28:33.223Z,721.2094
2023-02-13T13:33:35.668Z,813.88535
2023-02-13T13:38:38.250Z,789.83825
2023-02-13T13:43:40.498Z,648.12685
2023-02-13T13:48:42.523Z,527.68675
2023-02-13T13:53:44.729Z,389.0245
2023-02-13T13:58:47.054Z,296.8202
2023-02-13T14:03:49.440Z,250.95495
2023-02-13T14:08:51.625Z,230.90735
2023-02-13T14:13:53.461Z,235.77535
2023-02-13T14:18:55.288Z,261.0793
2023-02-13T14:23:57.028Z,283.7268
2023-02-13T14:28:58.894Z,319.96475
2023-02-13T14:34:00.935Z,334.94135
2023-02-13T14:39:02.664Z,290.25485
2023-02-13T14:44:04.491Z,217.31135
2023-02-13T14:49:06.295Z,220.50215
2023-02-13T14:54:08.128Z,202.9831
2023-02-13T14:59:10.035Z,185.8121
2023-02-13T15:04:12.140Z,112.4274
2023-02-13T15:09:13.967Z,93.3396
2023-02-13T15:14:15.858Z,113.7149
2023-02-13T15:19:18.004Z,104.20315
2023-02-13T15:24:20.147Z,80.816
2023-02-13T15:29:29.405Z,63.4244
2023-02-13T15:34:35.193Z,43.76425
2023-02-13T15:39:37.186Z,37.0879
2023-02-13T15:44:39.015Z,28.6412
2023-02-13T15:49:40.703Z,22.8871
2023-02-13T15:54:42.453Z,17.5019
2023-02-13T15:59:44.221Z,15.1782
2023-02-13T16:04:46.386Z,12.30115
2023-02-13T16:09:48.356Z,12.1167
2023-02-13T16:14:50.429Z,15.4178
2023-02-13T16:19:53.527Z,12.30115
2023-02-13T16:24:55.496Z,11.32375
2023-02-13T16:29:57.592Z,10.34635
2023-02-13T16:34:59.932Z,11.32375
2023-02-13T16:40:01.906Z,6.8608
2023-02-13T16:45:04.351Z,7.4693
2023-02-13T16:50:06.291Z,4.2665
2023-02-13T16:55:08.043Z,3.6147
2023-02-13T17:00:09.516Z,2.42955
2023-02-13T17:05:11.557Z,0.88885
2023-02-13T17:10:13.264Z,0.4148
2023-02-13T17:15:14.935Z,0
2023-02-13T17:20:17.590Z,0.88715
2023-02-13T17:25:19.794Z,0.88715
2023-02-13T17:30:21.726Z,0
2023-02-13T17:35:23.842Z,0
2023-02-13T17:40:25.733Z,0
2023-02-13T17:45:27.479Z,0.88715
2023-02-13T17:50:29.300Z,0
2023-02-13T17:55:30.834Z,0
2023-02-13T18:00:32.756Z,0
2023-02-13T18:05:34.690Z,0
2023-02-13T18:10:36.474Z,0
2023-02-13T18:15:38.502Z,0
2023-02-13T18:20:40.761Z,0.88715
2023-02-13T18:25:42.598Z,0
2023-02-13T18:30:44.625Z,0
2023-02-13T18:35:46.802Z,0
2023-02-13T18:40:48.633Z,0
2023-02-13T18:45:50.439Z,0
2023-02-13T18:50:52.504Z,0
2023-02-13T18:55:54.595Z,0
2023-02-13T19:00:56.454Z,0.88715
2023-02-13T19:05:58.747Z,0
2023-02-13T19:11:00.669Z,0.88715
2023-02-13T19:16:02.632Z,0
2023-02-13T19:21:04.430Z,0
2023-02-13T19:26:06.501Z,0
2023-02-13T19:31:08.743Z,0
2023-02-13T19:36:11.193Z,0
2023-02-13T19:41:13.165Z,0
2023-02-13T19:46:15.284Z,0
2023-02-13T19:51:17.515Z,0
2023-02-13T19:56:19.605Z,0.88715
2023-02-13T20:01:21.928Z,0
2023-02-13T20:06:24.037Z,0
2023-02-13T20:11:26.166Z,0
2023-02-13T20:16:28.017Z,0
2023-02-13T20:21:29.948Z,0.88715
2023-02-13T20:26:32.005Z,0
2023-02-13T20:31:33.954Z,0
2023-02-13T20:36:36.556Z,0
2023-02-13T20:41:38.564Z,0
2023-02-13T20:46:40.416Z,0
2023-02-13T20:51:42.324Z,0
2023-02-13T20:56:43.864Z,0
2023-02-13T21:01:45.341Z,0
2023-02-13T21:06:47.129Z,0
2023-02-13T21:11:48.652Z,0
2023-02-13T21:16:50.266Z,0
2023-02-13T21:21:51.769Z,0
2023-02-13T21:26:53.229Z,0
2023-02-13T21:31:55.216Z,0
2023-02-13T21:36:57.409Z,0
2023-02-13T21:41:59.217Z,0
2023-02-13T21:47:00.841Z,0
2023-02-13T21:52:02.435Z,0
2023-02-13T21:57:03.936Z,0
2023-02-13T22:02:05.574Z,0
2023-02-13T22:07:07.537Z,0
2023-02-13T22:12:09.140Z,0.88715
2023-02-13T22:17:10.915Z,0
2023-02-13T22:22:12.719Z,0.88715
2023-02-13T22:27:14.170Z,0
2023-02-13T22:32:15.951Z,0
2023-02-13T22:37:18.128Z,0
2023-02-13T22:42:24.906Z,0
2023-02-13T22:47:26.690Z,0
2023-02-13T22:52:28.788Z,0
2023-02-13T22:57:30.688Z,0
2023-02-13T23:02:32.513Z,0
2023-02-13T23:07:34.305Z,0
2023-02-13T23:12:36.173Z,0
2023-02-13T23:17:38.100Z,0
2023-02-13T23:22:39.971Z,0
2023-02-13T23:27:41.783Z,0
2023-02-13T23:32:43.470Z,0
2023-02-13T23:37:45.453Z,0.88715
2023-02-13T23:42:46.972Z,0
2023-02-13T23:47:48.879Z,0
2023-02-13T23:52:50.619Z,0
2023-02-13T23:57:52.516Z,0
